N208TC TJSJ-TNCE
Flight info
| Callsign | N208TC |
|---|---|
| Flight time | N/A |
| Altitude | 11500 |
| Route | VFR TFFG TNCE |
| Aircraft | C208/M-G/L |
Departure
| Time | N/A |
|---|---|
| Airport | Luis Munoz Marin International Airport (TJSJ) |
Arrival
| Time | 2026-05-05 01:24 |
|---|---|
| Airport | F. D. Roosevelt Airport (TNCE) |
| Time | Latitude | Longitude | Altitude | Speed | Heading |
|---|---|---|---|---|---|
| 2026-05-05 00:04 | 18.34186 | -65.09443 | 11289 ft | 175 kts | 98° |
| 2026-05-05 00:05 | 18.34043 | -65.08168 | 11406 ft | 177 kts | 98° |
| 2026-05-05 00:05 | 18.33895 | -65.06859 | 11446 ft | 181 kts | 98° |
| 2026-05-05 00:05 | 18.33746 | -65.05542 | 11485 ft | 182 kts | 98° |
| 2026-05-05 00:05 | 18.33597 | -65.04219 | 11497 ft | 182 kts | 98° |
| 2026-05-05 00:06 | 18.33448 | -65.02894 | 11499 ft | 183 kts | 98° |
| 2026-05-05 00:06 | 18.33299 | -65.01581 | 11500 ft | 183 kts | 98° |
| 2026-05-05 00:06 | 18.33149 | -65.00247 | 11500 ft | 183 kts | 98° |
| 2026-05-05 00:06 | 18.32998 | -64.98915 | 11500 ft | 184 kts | 98° |
| 2026-05-05 00:07 | 18.32847 | -64.97579 | 11500 ft | 184 kts | 98° |
| 2026-05-05 00:07 | 18.32695 | -64.96239 | 11500 ft | 184 kts | 98° |
| 2026-05-05 00:07 | 18.32544 | -64.94900 | 11501 ft | 184 kts | 98° |
| 2026-05-05 00:07 | 18.32392 | -64.93561 | 11502 ft | 185 kts | 98° |
| 2026-05-05 00:08 | 18.32241 | -64.92230 | 11502 ft | 185 kts | 98° |
| 2026-05-05 00:08 | 18.32085 | -64.90871 | 11499 ft | 187 kts | 96° |
| 2026-05-05 00:08 | 18.31931 | -64.89514 | 11498 ft | 187 kts | 96° |
| 2026-05-05 00:08 | 18.31777 | -64.88149 | 11495 ft | 188 kts | 96° |
| 2026-05-05 00:09 | 18.31623 | -64.86793 | 11492 ft | 188 kts | 97° |
| 2026-05-05 00:09 | 18.31467 | -64.85419 | 11490 ft | 188 kts | 97° |
| 2026-05-05 00:09 | 18.31313 | -64.84067 | 11489 ft | 188 kts | 97° |
| 2026-05-05 00:09 | 18.31158 | -64.82700 | 11488 ft | 187 kts | 97° |
| 2026-05-05 00:10 | 18.31003 | -64.81339 | 11487 ft | 187 kts | 97° |
| 2026-05-05 00:10 | 18.30847 | -64.79977 | 11487 ft | 187 kts | 97° |
| 2026-05-05 00:10 | 18.30692 | -64.78612 | 11487 ft | 187 kts | 97° |
| 2026-05-05 00:10 | 18.30536 | -64.77249 | 11487 ft | 187 kts | 97° |
| 2026-05-05 00:11 | 18.30380 | -64.75886 | 11487 ft | 187 kts | 97° |
| 2026-05-05 00:11 | 18.30225 | -64.74529 | 11487 ft | 187 kts | 97° |
| 2026-05-05 00:11 | 18.30071 | -64.73181 | 11488 ft | 187 kts | 97° |
| 2026-05-05 00:11 | 18.29915 | -64.71820 | 11488 ft | 187 kts | 97° |
| 2026-05-05 00:12 | 18.29759 | -64.70453 | 11488 ft | 187 kts | 97° |
| 2026-05-05 00:12 | 18.29603 | -64.69095 | 11489 ft | 187 kts | 97° |
| 2026-05-05 00:12 | 18.29446 | -64.67729 | 11486 ft | 187 kts | 97° |
| 2026-05-05 00:12 | 18.29290 | -64.66365 | 11485 ft | 188 kts | 97° |
| 2026-05-05 00:13 | 18.29135 | -64.65018 | 11484 ft | 188 kts | 97° |
| 2026-05-05 00:13 | 18.28978 | -64.63649 | 11484 ft | 188 kts | 97° |
| 2026-05-05 00:13 | 18.28821 | -64.62285 | 11484 ft | 188 kts | 97° |
| 2026-05-05 00:13 | 18.28663 | -64.60916 | 11484 ft | 188 kts | 97° |
| 2026-05-05 00:14 | 18.28508 | -64.59569 | 11484 ft | 188 kts | 97° |
| 2026-05-05 00:14 | 18.28351 | -64.58205 | 11484 ft | 188 kts | 97° |
| 2026-05-05 00:14 | 18.28193 | -64.56836 | 11484 ft | 188 kts | 97° |
| 2026-05-05 00:14 | 18.28036 | -64.55476 | 11484 ft | 188 kts | 97° |
| 2026-05-05 00:15 | 18.27878 | -64.54107 | 11484 ft | 188 kts | 98° |
| 2026-05-05 00:15 | 18.27724 | -64.52754 | 11521 ft | 185 kts | 98° |
| 2026-05-05 00:15 | 18.27571 | -64.51431 | 11533 ft | 184 kts | 98° |
| 2026-05-05 00:15 | 18.27416 | -64.50092 | 11536 ft | 184 kts | 98° |
| 2026-05-05 00:16 | 18.27260 | -64.48753 | 11537 ft | 184 kts | 98° |
| 2026-05-05 00:16 | 18.27105 | -64.47413 | 11538 ft | 184 kts | 98° |
| 2026-05-05 00:16 | 18.26949 | -64.46071 | 11533 ft | 185 kts | 97° |
| 2026-05-05 00:16 | 18.26790 | -64.44714 | 11497 ft | 188 kts | 97° |
| 2026-05-05 00:17 | 18.26633 | -64.43350 | 11502 ft | 187 kts | 98° |
| 2026-05-05 00:17 | 18.26480 | -64.42017 | 11535 ft | 184 kts | 99° |
| 2026-05-05 00:17 | 18.26324 | -64.40680 | 11543 ft | 184 kts | 99° |
| 2026-05-05 00:17 | 18.26169 | -64.39343 | 11545 ft | 184 kts | 99° |
| 2026-05-05 00:18 | 18.26065 | -64.38453 | 11545 ft | 184 kts | 99° |
| 2026-05-05 00:18 | 18.25909 | -64.37115 | 11545 ft | 184 kts | 99° |
| 2026-05-05 00:18 | 18.25702 | -64.35337 | 11545 ft | 185 kts | 99° |
| 2026-05-05 00:18 | 18.25596 | -64.34430 | 11545 ft | 185 kts | 99° |
| 2026-05-05 00:19 | 18.25442 | -64.33104 | 11545 ft | 185 kts | 99° |
| 2026-05-05 00:19 | 18.25285 | -64.31763 | 11545 ft | 185 kts | 99° |
| 2026-05-05 00:19 | 18.25128 | -64.30414 | 11516 ft | 186 kts | 99° |
| 2026-05-05 00:19 | 18.24969 | -64.29058 | 11503 ft | 186 kts | 99° |
| 2026-05-05 00:20 | 18.24813 | -64.27719 | 11500 ft | 186 kts | 99° |
| 2026-05-05 00:20 | 18.24655 | -64.26371 | 11500 ft | 186 kts | 99° |
| 2026-05-05 00:20 | 18.24498 | -64.25027 | 11500 ft | 185 kts | 99° |
| 2026-05-05 00:20 | 18.24340 | -64.23679 | 11500 ft | 185 kts | 99° |
| 2026-05-05 00:21 | 18.24183 | -64.22332 | 11500 ft | 185 kts | 99° |
| 2026-05-05 00:21 | 18.24025 | -64.20987 | 11500 ft | 185 kts | 98° |
| 2026-05-05 00:21 | 18.23868 | -64.19645 | 11500 ft | 185 kts | 98° |
| 2026-05-05 00:21 | 18.23710 | -64.18303 | 11500 ft | 185 kts | 98° |
| 2026-05-05 00:22 | 18.23553 | -64.16965 | 11500 ft | 184 kts | 98° |
| 2026-05-05 00:22 | 18.23397 | -64.15637 | 11500 ft | 184 kts | 98° |
| 2026-05-05 00:22 | 18.23239 | -64.14296 | 11500 ft | 184 kts | 98° |
| 2026-05-05 00:22 | 18.23082 | -64.12955 | 11500 ft | 184 kts | 98° |
| 2026-05-05 00:23 | 18.22924 | -64.11615 | 11500 ft | 184 kts | 98° |
| 2026-05-05 00:23 | 18.22766 | -64.10274 | 11500 ft | 184 kts | 98° |
| 2026-05-05 00:23 | 18.22610 | -64.08949 | 11498 ft | 181 kts | 98° |
| 2026-05-05 00:23 | 18.22458 | -64.07660 | 11498 ft | 179 kts | 98° |
| 2026-05-05 00:24 | 18.22305 | -64.06364 | 11427 ft | 181 kts | 98° |
| 2026-05-05 00:24 | 18.22145 | -64.05009 | 11228 ft | 185 kts | 98° |
| 2026-05-05 00:24 | 18.21989 | -64.03695 | 11030 ft | 183 kts | 98° |
| 2026-05-05 00:24 | 18.21833 | -64.02372 | 10828 ft | 181 kts | 98° |
| 2026-05-05 00:25 | 18.21677 | -64.01056 | 10626 ft | 180 kts | 98° |
| 2026-05-05 00:25 | 18.21524 | -63.99757 | 10426 ft | 179 kts | 98° |
| 2026-05-05 00:25 | 18.21370 | -63.98460 | 10225 ft | 178 kts | 98° |
| 2026-05-05 00:25 | 18.21215 | -63.97166 | 10024 ft | 179 kts | 96° |
| 2026-05-05 00:26 | 18.21061 | -63.95866 | 9823 ft | 178 kts | 95° |
| 2026-05-05 00:26 | 18.20909 | -63.94584 | 9620 ft | 175 kts | 95° |
| 2026-05-05 00:26 | 18.20761 | -63.93337 | 9422 ft | 173 kts | 95° |
| 2026-05-05 00:26 | 18.20612 | -63.92079 | 9220 ft | 172 kts | 95° |
| 2026-05-05 00:27 | 18.20464 | -63.90834 | 9063 ft | 170 kts | 95° |
| 2026-05-05 00:27 | 18.20319 | -63.89612 | 8936 ft | 168 kts | 95° |
| 2026-05-05 00:27 | 18.20174 | -63.88384 | 8812 ft | 169 kts | 95° |
| 2026-05-05 00:27 | 18.20028 | -63.87154 | 8688 ft | 169 kts | 95° |
| 2026-05-05 00:28 | 18.19881 | -63.85922 | 8563 ft | 169 kts | 95° |
| 2026-05-05 00:28 | 18.19735 | -63.84692 | 8439 ft | 169 kts | 95° |
| 2026-05-05 00:28 | 18.19590 | -63.83474 | 8315 ft | 169 kts | 95° |
| 2026-05-05 00:28 | 18.19499 | -63.82711 | 8237 ft | 168 kts | 96° |
| 2026-05-05 00:29 | 18.19353 | -63.81491 | 8112 ft | 167 kts | 96° |
| 2026-05-05 00:29 | 18.19210 | -63.80273 | 7986 ft | 167 kts | 98° |
| 2026-05-05 00:29 | 18.19066 | -63.79066 | 7861 ft | 167 kts | 98° |
| 2026-05-05 00:29 | 18.18920 | -63.77849 | 7738 ft | 168 kts | 98° |
| 2026-05-05 00:30 | 18.18774 | -63.76638 | 7616 ft | 169 kts | 98° |
| 2026-05-05 00:30 | 18.18626 | -63.75406 | 7491 ft | 170 kts | 98° |
| 2026-05-05 00:30 | 18.18476 | -63.74167 | 7364 ft | 172 kts | 96° |
| 2026-05-05 00:30 | 18.18325 | -63.72911 | 7242 ft | 174 kts | 96° |
| 2026-05-05 00:31 | 18.18175 | -63.71646 | 7118 ft | 174 kts | 96° |
| 2026-05-05 00:31 | 18.18023 | -63.70378 | 6993 ft | 174 kts | 97° |
| 2026-05-05 00:31 | 18.17873 | -63.69126 | 6870 ft | 174 kts | 97° |
| 2026-05-05 00:31 | 18.17722 | -63.67861 | 6745 ft | 174 kts | 97° |
| 2026-05-05 00:32 | 18.17569 | -63.66592 | 6620 ft | 174 kts | 97° |
| 2026-05-05 00:32 | 18.17417 | -63.65325 | 6495 ft | 174 kts | 97° |
| 2026-05-05 00:32 | 18.17265 | -63.64058 | 6370 ft | 174 kts | 97° |
| 2026-05-05 00:32 | 18.17112 | -63.62793 | 6245 ft | 174 kts | 97° |
| 2026-05-05 00:33 | 18.16960 | -63.61527 | 6120 ft | 174 kts | 97° |
| 2026-05-05 00:33 | 18.16807 | -63.60262 | 5995 ft | 174 kts | 97° |
| 2026-05-05 00:33 | 18.16655 | -63.58996 | 5869 ft | 174 kts | 97° |
| 2026-05-05 00:33 | 18.16503 | -63.57735 | 5744 ft | 174 kts | 97° |
| 2026-05-05 00:34 | 18.16351 | -63.56475 | 5622 ft | 172 kts | 98° |
| 2026-05-05 00:34 | 18.16203 | -63.55240 | 5495 ft | 169 kts | 98° |
| 2026-05-05 00:34 | 18.16058 | -63.54041 | 5370 ft | 167 kts | 98° |
| 2026-05-05 00:34 | 18.15912 | -63.52833 | 5244 ft | 166 kts | 98° |
| 2026-05-05 00:35 | 18.15767 | -63.51635 | 5119 ft | 165 kts | 98° |
| 2026-05-05 00:35 | 18.15622 | -63.50440 | 4993 ft | 164 kts | 98° |
| 2026-05-05 00:35 | 18.15477 | -63.49243 | 4868 ft | 164 kts | 98° |
| 2026-05-05 00:35 | 18.15333 | -63.48057 | 4766 ft | 163 kts | 98° |
| 2026-05-05 00:36 | 18.15193 | -63.46894 | 4690 ft | 161 kts | 98° |
| 2026-05-05 00:36 | 18.15051 | -63.45728 | 4614 ft | 160 kts | 98° |
| 2026-05-05 00:36 | 18.14910 | -63.44565 | 4539 ft | 160 kts | 98° |
| 2026-05-05 00:36 | 18.14769 | -63.43405 | 4464 ft | 160 kts | 98° |
| 2026-05-05 00:37 | 18.14630 | -63.42260 | 4390 ft | 159 kts | 98° |
| 2026-05-05 00:37 | 18.14488 | -63.41089 | 4314 ft | 160 kts | 98° |
| 2026-05-05 00:37 | 18.14348 | -63.39937 | 4241 ft | 161 kts | 98° |
| 2026-05-05 00:37 | 18.14205 | -63.38765 | 4167 ft | 162 kts | 98° |
| 2026-05-05 00:38 | 18.14063 | -63.37593 | 4093 ft | 162 kts | 98° |
| 2026-05-05 00:38 | 18.13920 | -63.36417 | 4017 ft | 162 kts | 98° |
| 2026-05-05 00:38 | 18.13777 | -63.35243 | 3942 ft | 162 kts | 98° |
| 2026-05-05 00:38 | 18.13634 | -63.34068 | 3867 ft | 162 kts | 98° |
| 2026-05-05 00:39 | 18.13492 | -63.32903 | 3795 ft | 163 kts | 98° |
| 2026-05-05 00:39 | 18.13347 | -63.31716 | 3721 ft | 165 kts | 98° |
| 2026-05-05 00:39 | 18.13200 | -63.30517 | 3647 ft | 165 kts | 98° |
| 2026-05-05 00:39 | 18.13054 | -63.29318 | 3570 ft | 164 kts | 98° |
| 2026-05-05 00:40 | 18.12910 | -63.28133 | 3493 ft | 162 kts | 99° |
| 2026-05-05 00:40 | 18.12766 | -63.26961 | 3417 ft | 161 kts | 99° |
| 2026-05-05 00:40 | 18.12624 | -63.25795 | 3341 ft | 160 kts | 99° |
| 2026-05-05 00:40 | 18.12482 | -63.24634 | 3266 ft | 160 kts | 99° |
| 2026-05-05 00:41 | 18.12341 | -63.23488 | 3192 ft | 160 kts | 99° |
| 2026-05-05 00:41 | 18.12200 | -63.22331 | 3117 ft | 159 kts | 99° |
| 2026-05-05 00:41 | 18.12058 | -63.21174 | 3041 ft | 159 kts | 99° |
| 2026-05-05 00:41 | 18.11916 | -63.20016 | 2966 ft | 159 kts | 99° |
| 2026-05-05 00:42 | 18.11776 | -63.18872 | 2892 ft | 159 kts | 99° |
| 2026-05-05 00:42 | 18.11635 | -63.17727 | 2816 ft | 157 kts | 99° |
| 2026-05-05 00:42 | 18.11494 | -63.16574 | 2740 ft | 158 kts | 99° |
| 2026-05-05 00:42 | 18.11354 | -63.15438 | 2667 ft | 159 kts | 99° |
| 2026-05-05 00:43 | 18.11215 | -63.14306 | 2585 ft | 150 kts | 99° |
| 2026-05-05 00:43 | 18.11087 | -63.13256 | 2481 ft | 142 kts | 99° |
| 2026-05-05 00:43 | 18.10959 | -63.12221 | 2278 ft | 142 kts | 99° |
| 2026-05-05 00:43 | 18.10903 | -63.11180 | 2077 ft | 143 kts | 90° |
| 2026-05-05 00:44 | 18.10986 | -63.10168 | 1873 ft | 134 kts | 87° |
| 2026-05-05 00:44 | 18.11022 | -63.09267 | 1734 ft | 114 kts | 95° |
| 2026-05-05 00:44 | 18.10946 | -63.08420 | 1314 ft | 120 kts | 99° |
| 2026-05-05 00:44 | 18.10817 | -63.07568 | 893 ft | 114 kts | 104° |
| 2026-05-05 00:45 | 18.10643 | -63.06850 | 656 ft | 91 kts | 108° |
| 2026-05-05 00:45 | 18.10435 | -63.06230 | 330 ft | 90 kts | 109° |
| 2026-05-05 00:45 | 18.10264 | -63.05622 | 127 ft | 83 kts | 105° |
| 2026-05-05 00:45 | 18.10110 | -63.05047 | 57 ft | 81 kts | 103° |
| 2026-05-05 00:46 | 18.09977 | -63.04496 | 28 ft | 64 kts | 104° |
| 2026-05-05 00:46 | 18.09914 | -63.04315 | 28 ft | 11 kts | 177° |
| 2026-05-05 00:46 | 18.09882 | -63.04345 | 28 ft | 0 kts | 292° |
| 2026-05-05 00:51 | 18.09882 | -63.04346 | 28 ft | 0 kts | 292° |
| 2026-05-05 00:52 | 18.09883 | -63.04346 | 28 ft | 0 kts | 292° |
| 2026-05-05 00:52 | 18.09937 | -63.04525 | 28 ft | 61 kts | 288° |
| 2026-05-05 00:52 | 18.10110 | -63.05126 | 60 ft | 103 kts | 287° |
| 2026-05-05 00:53 | 18.10303 | -63.05878 | 253 ft | 111 kts | 284° |
| 2026-05-05 00:53 | 18.10510 | -63.06660 | 444 ft | 110 kts | 291° |
| 2026-05-05 00:53 | 18.10793 | -63.07407 | 628 ft | 110 kts | 292° |
| 2026-05-05 00:53 | 18.11095 | -63.08149 | 833 ft | 109 kts | 292° |
| 2026-05-05 00:54 | 18.11336 | -63.08883 | 1038 ft | 108 kts | 268° |
| 2026-05-05 00:54 | 18.11237 | -63.09630 | 1289 ft | 102 kts | 256° |
| 2026-05-05 00:54 | 18.11113 | -63.10393 | 1445 ft | 109 kts | 260° |
| 2026-05-05 00:54 | 18.11081 | -63.11211 | 1593 ft | 114 kts | 265° |
| 2026-05-05 00:55 | 18.11064 | -63.12065 | 1734 ft | 118 kts | 265° |
| 2026-05-05 00:55 | 18.11047 | -63.12940 | 1868 ft | 121 kts | 265° |
| 2026-05-05 00:55 | 18.11030 | -63.13820 | 1998 ft | 123 kts | 265° |
| 2026-05-05 00:55 | 18.11013 | -63.14725 | 2127 ft | 125 kts | 265° |
| 2026-05-05 00:56 | 18.10996 | -63.15644 | 2256 ft | 126 kts | 265° |
| 2026-05-05 00:56 | 18.10870 | -63.16544 | 2334 ft | 126 kts | 237° |
| 2026-05-05 00:56 | 18.10153 | -63.17039 | 2257 ft | 127 kts | 188° |
| 2026-05-05 00:56 | 18.09294 | -63.17182 | 2137 ft | 124 kts | 183° |
| 2026-05-05 00:57 | 18.08446 | -63.17297 | 2002 ft | 121 kts | 182° |
| 2026-05-05 00:57 | 18.07640 | -63.17407 | 1980 ft | 112 kts | 182° |
| 2026-05-05 00:57 | 18.06890 | -63.17512 | 1975 ft | 106 kts | 182° |
| 2026-05-05 00:57 | 18.06177 | -63.17613 | 1977 ft | 101 kts | 182° |
| 2026-05-05 00:58 | 18.05468 | -63.17711 | 1878 ft | 107 kts | 181° |
| 2026-05-05 00:58 | 18.04775 | -63.17520 | 1808 ft | 100 kts | 138° |
| 2026-05-05 00:58 | 18.04332 | -63.17000 | 1792 ft | 87 kts | 115° |
| 2026-05-05 00:58 | 18.04092 | -63.16472 | 1622 ft | 80 kts | 104° |
| 2026-05-05 00:59 | 18.03949 | -63.15912 | 1390 ft | 79 kts | 94° |
| 2026-05-05 00:59 | 18.03896 | -63.15336 | 1200 ft | 80 kts | 90° |
| 2026-05-05 00:59 | 18.03843 | -63.14758 | 1050 ft | 79 kts | 90° |
| 2026-05-05 00:59 | 18.03819 | -63.14182 | 894 ft | 79 kts | 87° |
| 2026-05-05 01:00 | 18.03816 | -63.13597 | 701 ft | 82 kts | 86° |
| 2026-05-05 01:00 | 18.03841 | -63.12994 | 506 ft | 83 kts | 83° |
| 2026-05-05 01:00 | 18.03886 | -63.12388 | 239 ft | 82 kts | 82° |
| 2026-05-05 01:00 | 18.03958 | -63.11824 | 22 ft | 71 kts | 79° |
| 2026-05-05 01:01 | 18.04017 | -63.11422 | 6 ft | 30 kts | 81° |
| 2026-05-05 01:01 | 18.04093 | -63.11304 | 6 ft | 19 kts | 357° |
| 2026-05-05 01:01 | 18.04122 | -63.11307 | 6 ft | 0 kts | 358° |
| 2026-05-05 01:02 | 18.04123 | -63.11307 | 6 ft | 0 kts | 358° |
| 2026-05-05 01:03 | 18.04132 | -63.11305 | 6 ft | 5 kts | 36° |
| 2026-05-05 01:03 | 18.04098 | -63.11294 | 6 ft | 11 kts | 195° |
| 2026-05-05 01:03 | 18.04026 | -63.11367 | 6 ft | 20 kts | 255° |
| 2026-05-05 01:04 | 18.03999 | -63.11533 | 6 ft | 26 kts | 261° |
| 2026-05-05 01:04 | 18.03965 | -63.11875 | 6 ft | 5 kts | 249° |
| 2026-05-05 01:04 | 18.03948 | -63.11863 | 6 ft | 2 kts | 78° |
| 2026-05-05 01:05 | 18.03960 | -63.11804 | 6 ft | 19 kts | 82° |
| 2026-05-05 01:05 | 18.04011 | -63.11443 | 6 ft | 81 kts | 84° |
| 2026-05-05 01:05 | 18.04100 | -63.10785 | 258 ft | 91 kts | 83° |
| 2026-05-05 01:05 | 18.04205 | -63.10142 | 630 ft | 90 kts | 82° |
| 2026-05-05 01:06 | 18.04270 | -63.09477 | 891 ft | 96 kts | 102° |
| 2026-05-05 01:06 | 18.03779 | -63.09034 | 1130 ft | 103 kts | 170° |
| 2026-05-05 01:06 | 18.03074 | -63.09108 | 1457 ft | 102 kts | 183° |
| 2026-05-05 01:06 | 18.02360 | -63.09217 | 1723 ft | 105 kts | 182° |
| 2026-05-05 01:07 | 18.01629 | -63.09325 | 1983 ft | 107 kts | 182° |
| 2026-05-05 01:07 | 18.00896 | -63.09431 | 2237 ft | 108 kts | 181° |
| 2026-05-05 01:07 | 18.00134 | -63.09535 | 2436 ft | 117 kts | 180° |
| 2026-05-05 01:07 | 17.99319 | -63.09636 | 2680 ft | 117 kts | 178° |
| 2026-05-05 01:08 | 17.98518 | -63.09654 | 2926 ft | 114 kts | 171° |
| 2026-05-05 01:08 | 17.97995 | -63.09611 | 3091 ft | 113 kts | 167° |
| 2026-05-05 01:08 | 17.97217 | -63.09491 | 3320 ft | 114 kts | 164° |
| 2026-05-05 01:08 | 17.96418 | -63.09327 | 3463 ft | 121 kts | 163° |
| 2026-05-05 01:09 | 17.95566 | -63.09128 | 3514 ft | 130 kts | 162° |
| 2026-05-05 01:09 | 17.94686 | -63.08915 | 3670 ft | 128 kts | 162° |
| 2026-05-05 01:09 | 17.93830 | -63.08705 | 3838 ft | 128 kts | 162° |
| 2026-05-05 01:09 | 17.92959 | -63.08488 | 4014 ft | 130 kts | 162° |
| 2026-05-05 01:10 | 17.92077 | -63.08267 | 4190 ft | 131 kts | 162° |
| 2026-05-05 01:10 | 17.91176 | -63.08040 | 4252 ft | 139 kts | 162° |
| 2026-05-05 01:10 | 17.90187 | -63.07788 | 4113 ft | 150 kts | 162° |
| 2026-05-05 01:10 | 17.89156 | -63.07529 | 4026 ft | 152 kts | 163° |
| 2026-05-05 01:11 | 17.88129 | -63.07272 | 4003 ft | 150 kts | 163° |
| 2026-05-05 01:11 | 17.87117 | -63.07019 | 3999 ft | 149 kts | 162° |
| 2026-05-05 01:11 | 17.86115 | -63.06767 | 3999 ft | 147 kts | 162° |
| 2026-05-05 01:11 | 17.85120 | -63.06517 | 3999 ft | 147 kts | 162° |
| 2026-05-05 01:12 | 17.84124 | -63.06266 | 4000 ft | 147 kts | 162° |
| 2026-05-05 01:12 | 17.83144 | -63.06022 | 4000 ft | 146 kts | 162° |
| 2026-05-05 01:12 | 17.82145 | -63.05804 | 3998 ft | 148 kts | 169° |
| 2026-05-05 01:12 | 17.81110 | -63.05766 | 4002 ft | 149 kts | 175° |
| 2026-05-05 01:13 | 17.80072 | -63.05798 | 4000 ft | 150 kts | 180° |
| 2026-05-05 01:13 | 17.79033 | -63.05962 | 4001 ft | 151 kts | 185° |
| 2026-05-05 01:13 | 17.78000 | -63.06164 | 4000 ft | 151 kts | 185° |
| 2026-05-05 01:13 | 17.76965 | -63.06370 | 4000 ft | 151 kts | 186° |
| 2026-05-05 01:14 | 17.75926 | -63.06577 | 4000 ft | 151 kts | 186° |
| 2026-05-05 01:14 | 17.74901 | -63.06781 | 3988 ft | 153 kts | 185° |
| 2026-05-05 01:14 | 17.73843 | -63.06991 | 3953 ft | 155 kts | 186° |
| 2026-05-05 01:14 | 17.72784 | -63.07201 | 3943 ft | 154 kts | 186° |
| 2026-05-05 01:15 | 17.71727 | -63.07403 | 3939 ft | 154 kts | 184° |
| 2026-05-05 01:15 | 17.70668 | -63.07535 | 3936 ft | 153 kts | 181° |
| 2026-05-05 01:15 | 17.69626 | -63.07643 | 3933 ft | 152 kts | 180° |
| 2026-05-05 01:15 | 17.68566 | -63.07752 | 3931 ft | 152 kts | 180° |
| 2026-05-05 01:16 | 17.67510 | -63.07859 | 3929 ft | 152 kts | 180° |
| 2026-05-05 01:16 | 17.66451 | -63.07967 | 3928 ft | 152 kts | 180° |
| 2026-05-05 01:16 | 17.65396 | -63.08076 | 3928 ft | 153 kts | 180° |
| 2026-05-05 01:16 | 17.64329 | -63.08185 | 3808 ft | 159 kts | 180° |
| 2026-05-05 01:17 | 17.63220 | -63.08296 | 3637 ft | 161 kts | 180° |
| 2026-05-05 01:17 | 17.62102 | -63.08408 | 3465 ft | 162 kts | 180° |
| 2026-05-05 01:17 | 17.60981 | -63.08522 | 3291 ft | 162 kts | 180° |
| 2026-05-05 01:17 | 17.59860 | -63.08637 | 3121 ft | 161 kts | 180° |
| 2026-05-05 01:18 | 17.58750 | -63.08753 | 2989 ft | 159 kts | 180° |
| 2026-05-05 01:18 | 17.57663 | -63.08868 | 2931 ft | 156 kts | 186° |
| 2026-05-05 01:18 | 17.56571 | -63.08929 | 2920 ft | 156 kts | 181° |
| 2026-05-05 01:18 | 17.55498 | -63.08959 | 2918 ft | 156 kts | 180° |
| 2026-05-05 01:19 | 17.54416 | -63.08987 | 2917 ft | 154 kts | 180° |
| 2026-05-05 01:19 | 17.53371 | -63.09015 | 2908 ft | 145 kts | 180° |
| 2026-05-05 01:19 | 17.52392 | -63.09042 | 2907 ft | 137 kts | 180° |
| 2026-05-05 01:19 | 17.51428 | -63.09067 | 2783 ft | 141 kts | 178° |
| 2026-05-05 01:20 | 17.50569 | -63.08612 | 2603 ft | 143 kts | 128° |
| 2026-05-05 01:20 | 17.50135 | -63.07687 | 2494 ft | 141 kts | 118° |
| 2026-05-05 01:20 | 17.49531 | -63.06896 | 2433 ft | 137 kts | 131° |
| 2026-05-05 01:20 | 17.48896 | -63.06183 | 2412 ft | 133 kts | 132° |
| 2026-05-05 01:21 | 17.48257 | -63.05480 | 2363 ft | 130 kts | 133° |
| 2026-05-05 01:21 | 17.47628 | -63.04791 | 2211 ft | 132 kts | 133° |
| 2026-05-05 01:21 | 17.46996 | -63.04090 | 2086 ft | 130 kts | 133° |
| 2026-05-05 01:21 | 17.46544 | -63.03351 | 2057 ft | 116 kts | 108° |
| 2026-05-05 01:22 | 17.46606 | -63.02596 | 1959 ft | 99 kts | 65° |
| 2026-05-05 01:22 | 17.46901 | -63.02002 | 1777 ft | 87 kts | 63° |
| 2026-05-05 01:22 | 17.47178 | -63.01476 | 1599 ft | 83 kts | 59° |
| 2026-05-05 01:22 | 17.47474 | -63.00972 | 1442 ft | 81 kts | 59° |
| 2026-05-05 01:23 | 17.47782 | -63.00470 | 1252 ft | 83 kts | 56° |
| 2026-05-05 01:23 | 17.48118 | -62.99960 | 1020 ft | 86 kts | 53° |
| 2026-05-05 01:23 | 17.48502 | -62.99448 | 694 ft | 93 kts | 51° |
| 2026-05-05 01:23 | 17.48904 | -62.98920 | 352 ft | 94 kts | 51° |
| 2026-05-05 01:24 | 17.49288 | -62.98437 | 157 ft | 75 kts | 51° |
| 2026-05-05 01:24 | 17.49571 | -62.98079 | 135 ft | 51 kts | 50° |
| 2026-05-05 01:24 | 17.49722 | -62.97886 | 135 ft | 24 kts | 51° |
| 2026-05-05 01:24 | 17.49842 | -62.97731 | 135 ft | 27 kts | 50° |
| 2026-05-05 01:25 | 17.49943 | -62.97605 | 135 ft | 19 kts | 48° |
| 2026-05-05 01:25 | 17.50000 | -62.97520 | 135 ft | 10 kts | 101° |
| 2026-05-05 01:25 | 17.50004 | -62.97500 | 135 ft | 0 kts | 19° |